createdAt,value
2017-07-09T15:35:41.113Z,180
2017-07-09T15:36:02.607Z,180
2017-07-09T15:36:24.697Z,185
2017-07-09T15:36:45.736Z,185
2017-07-09T15:37:06.942Z,180
2017-07-09T15:37:28.850Z,185
2017-07-09T15:37:49.968Z,185
2017-07-09T15:38:11.169Z,190
2017-07-09T15:38:33.479Z,185
2017-07-09T15:38:54.899Z,185
2017-07-09T15:39:19.401Z,185
2017-07-09T15:39:40.969Z,185
2017-07-09T15:40:03.673Z,180
2017-07-09T15:40:24.476Z,180
2017-07-09T15:40:45.732Z,165
2017-07-09T15:41:06.650Z,160
2017-07-09T15:41:28.351Z,155
2017-07-09T15:41:51.706Z,165
2017-07-09T15:42:13.570Z,180
2017-07-09T15:42:35.358Z,180
2017-07-09T15:42:58.431Z,180
2017-07-09T15:43:20.785Z,180
2017-07-09T15:43:43.136Z,180
2017-07-09T15:44:05.118Z,180
2017-07-09T15:44:26.605Z,180
2017-07-09T15:44:48.230Z,180
2017-07-09T15:45:09.602Z,180
2017-07-09T15:45:31.826Z,165
2017-07-09T15:45:53.320Z,155
2017-07-09T15:46:14.417Z,170
2017-07-09T15:46:35.255Z,180
2017-07-09T15:46:58.835Z,180
2017-07-09T15:47:20.370Z,185
2017-07-09T15:47:44.070Z,190
2017-07-09T15:48:05.408Z,200
2017-07-09T15:48:26.633Z,210
2017-07-09T15:48:47.182Z,225
2017-07-09T15:49:08.320Z,230
2017-07-09T15:49:29.579Z,235
2017-07-09T15:49:50.870Z,235
2017-07-09T15:50:12.621Z,220
2017-07-09T15:50:33.592Z,190
2017-07-09T15:50:55.196Z,190
2017-07-09T15:51:17.150Z,225
2017-07-09T15:51:38.796Z,245
2017-07-09T15:52:01.287Z,250
2017-07-09T15:52:22.050Z,210
2017-07-09T15:52:43.359Z,165
2017-07-09T15:53:04.345Z,145
2017-07-09T15:53:25.113Z,230
2017-07-09T15:53:46.330Z,165
2017-07-09T15:54:07.219Z,225
2017-07-09T15:54:29.429Z,240
2017-07-09T15:54:50.006Z,245
2017-07-09T15:55:12.750Z,245
2017-07-09T15:55:33.677Z,250
2017-07-09T15:55:54.375Z,265
2017-07-09T15:56:16.518Z,260
2017-07-09T15:56:37.461Z,255
2017-07-09T15:56:58.309Z,210
2017-07-09T15:57:19.900Z,195
2017-07-09T15:57:41.802Z,275
2017-07-09T15:58:02.807Z,285
2017-07-09T15:58:24.477Z,280
2017-07-09T15:58:45.284Z,280
2017-07-09T15:59:05.942Z,250
2017-07-09T15:59:27.716Z,235
2017-07-09T15:59:48.613Z,285
2017-07-09T16:00:09.887Z,150
2017-07-09T16:00:30.416Z,175
2017-07-09T16:00:50.739Z,205
2017-07-09T16:01:11.100Z,195
2017-07-09T16:01:31.392Z,280
2017-07-09T16:01:51.677Z,160
2017-07-09T16:02:12.058Z,120
2017-07-09T16:02:32.392Z,115
2017-07-09T16:02:52.774Z,115
2017-07-09T16:03:13.153Z,115
2017-07-09T16:03:33.517Z,110
2017-07-09T16:03:53.921Z,110
2017-07-09T16:04:14.272Z,110
2017-07-09T16:04:34.637Z,105
2017-07-09T16:04:54.962Z,105
2017-07-09T16:05:15.270Z,105
2017-07-09T16:05:35.703Z,100
2017-07-09T16:05:56.005Z,100
2017-07-09T16:06:16.375Z,100
2017-07-09T16:06:36.664Z,100
2017-07-09T16:06:57.136Z,95
2017-07-09T16:07:17.427Z,95
2017-07-09T16:07:37.785Z,95
2017-07-09T16:07:58.109Z,95
2017-07-09T16:08:18.466Z,90
2017-07-09T16:08:38.886Z,90
2017-07-09T16:08:59.211Z,90
2017-07-09T16:09:19.489Z,90
2017-07-09T16:09:39.805Z,85
2017-07-09T16:10:00.080Z,85
2017-07-09T16:10:20.403Z,85
2017-07-09T16:10:40.723Z,85
2017-07-09T16:11:00.996Z,80
2017-07-09T16:11:21.341Z,80
2017-07-09T16:11:41.616Z,80
2017-07-09T16:12:01.913Z,80
2017-07-09T16:12:22.217Z,80
2017-07-09T16:12:42.545Z,80
2017-07-09T16:13:02.828Z,80
2017-07-09T16:13:23.137Z,80
2017-07-09T16:13:43.459Z,80
2017-07-09T16:14:03.771Z,80
2017-07-09T16:14:24.087Z,80
2017-07-09T16:14:44.432Z,80
2017-07-09T16:15:04.896Z,80
2017-07-09T16:15:25.339Z,80
2017-07-09T16:15:45.613Z,80
2017-07-09T16:16:05.951Z,80
2017-07-09T16:16:26.296Z,80
2017-07-09T16:16:46.684Z,80
2017-07-09T16:17:07.036Z,80
2017-07-09T16:17:27.312Z,80
2017-07-09T16:17:47.639Z,80
2017-07-09T16:18:07.950Z,80
2017-07-09T16:18:28.418Z,80
2017-07-09T16:18:48.778Z,85
2017-07-09T16:19:09.100Z,85
2017-07-09T16:19:29.418Z,80
2017-07-09T16:19:49.690Z,85
2017-07-09T16:20:09.984Z,80
2017-07-09T16:20:30.271Z,80
2017-07-09T16:20:50.623Z,80
2017-07-09T20:15:58.845Z,0
2017-07-09T20:16:19.198Z,0
2017-07-09T20:16:39.608Z,0
2017-07-09T20:16:59.932Z,0
2017-07-09T20:17:20.226Z,0
2017-07-09T20:17:40.613Z,0
2017-07-09T20:18:00.887Z,0
2017-07-09T20:18:21.370Z,0
2017-07-09T20:18:41.693Z,0
2017-07-09T20:19:02.008Z,0
2017-07-09T20:19:22.280Z,0
2017-07-09T20:19:42.643Z,0
2017-07-09T20:20:03.007Z,0
2017-07-09T20:20:23.380Z,0
2017-07-09T20:20:43.740Z,0
2017-07-09T20:21:04.065Z,0
2017-07-09T20:21:24.393Z,0
2017-07-09T20:21:44.740Z,0
2017-07-09T20:22:05.040Z,0
2017-07-09T20:22:25.382Z,0
2017-07-09T20:22:45.743Z,0
2017-07-09T20:23:07.065Z,0
2017-07-09T20:23:27.370Z,0
2017-07-09T20:23:47.630Z,0
2017-07-09T20:24:07.985Z,0
2017-07-09T20:24:28.345Z,0
2017-07-09T20:24:48.629Z,0
2017-07-09T20:25:08.900Z,0
2017-07-09T20:25:29.475Z,0
2017-07-09T20:25:50.010Z,0
2017-07-09T20:26:10.310Z,0
2017-07-09T20:26:30.653Z,0
2017-07-09T20:26:50.962Z,0
2017-07-09T20:27:11.265Z,0
2017-07-09T20:27:31.673Z,0
2017-07-09T20:27:52.429Z,0
2017-07-09T20:28:13.508Z,0
2017-07-09T20:28:33.832Z,0
2017-07-09T20:28:54.230Z,0
2017-07-09T20:29:14.562Z,0
2017-07-09T20:29:34.881Z,0
2017-07-09T20:29:55.156Z,0
2017-07-09T20:30:15.655Z,0
2017-07-09T20:30:35.992Z,0
2017-07-09T20:30:56.286Z,0
2017-07-09T20:31:16.622Z,0
2017-07-09T20:31:37.500Z,0
2017-07-09T20:31:57.860Z,0
2017-07-09T20:32:18.275Z,0
2017-07-09T20:32:38.573Z,0
2017-07-09T20:32:58.900Z,0
2017-07-09T20:33:37.820Z,0
2017-07-09T20:33:58.116Z,0
2017-07-09T20:34:18.540Z,0
2017-07-09T20:34:39.553Z,0
2017-07-09T20:34:59.984Z,0
2017-07-09T20:35:20.486Z,0
2017-07-09T20:35:40.853Z,0
2017-07-09T20:36:01.387Z,0
2017-07-09T20:36:21.751Z,0
2017-07-09T20:36:42.131Z,0
2017-07-09T20:37:03.150Z,0
2017-07-09T20:37:23.503Z,0
2017-07-09T20:37:43.825Z,0
2017-07-09T20:38:04.324Z,0
2017-07-09T20:38:24.783Z,0
2017-07-09T20:38:45.998Z,0
2017-07-09T20:39:06.266Z,0
2017-07-09T20:39:26.567Z,0
2017-07-09T20:39:46.948Z,0
2017-07-09T20:40:07.295Z,0
2017-07-09T20:40:27.562Z,0
2017-07-09T20:40:47.893Z,0
2017-07-09T20:41:08.222Z,0
2017-07-09T20:41:29.176Z,0
2017-07-09T20:41:50.653Z,0
2017-07-09T20:42:11.025Z,0
2017-07-09T20:42:31.352Z,0
2017-07-09T20:42:51.455Z,0
2017-07-09T20:43:11.764Z,0
2017-07-09T20:43:31.805Z,0
2017-07-09T20:43:52.179Z,0
2017-07-09T20:44:13.498Z,0
2017-07-09T20:44:33.786Z,0
2017-07-09T20:44:54.077Z,0
2017-07-09T20:45:14.573Z,0
2017-07-09T20:45:34.835Z,0
2017-07-09T20:45:55.099Z,0
2017-07-09T20:46:15.409Z,0
2017-07-09T20:46:35.811Z,0
2017-07-09T20:46:56.109Z,0
2017-07-09T20:47:16.466Z,0
2017-07-09T20:47:36.809Z,0
2017-07-09T20:47:58.738Z,0
2017-07-09T20:48:19.140Z,0
2017-07-09T20:48:39.580Z,0
2017-07-09T20:49:01.689Z,0
2017-07-09T20:49:21.997Z,0
2017-07-09T20:49:44.143Z,0
2017-07-09T20:50:06.160Z,0
2017-07-09T20:50:28.169Z,0
2017-07-09T20:50:48.490Z,0
2017-07-09T20:51:10.751Z,0
2017-07-09T20:51:31.141Z,0
2017-07-09T20:51:52.630Z,0
2017-07-09T20:52:13.618Z,0
2017-07-09T20:52:33.979Z,0
2017-07-09T20:52:54.304Z,0
2017-07-09T20:53:14.623Z,0
2017-07-09T20:53:34.892Z,0
2017-07-09T20:53:55.254Z,0
2017-07-09T20:54:15.532Z,0
2017-07-09T20:54:35.839Z,0
2017-07-09T20:54:56.126Z,0
2017-07-09T20:55:16.539Z,0
2017-07-09T20:55:37.536Z,0
2017-07-09T20:55:57.860Z,0
2017-07-09T20:56:18.152Z,0
2017-07-09T20:56:38.471Z,0
2017-07-09T20:56:58.753Z,0
2017-07-09T20:57:18.770Z,0
2017-07-09T20:57:39.092Z,0
2017-07-09T20:57:59.388Z,0
2017-07-09T20:58:19.733Z,0
2017-07-09T20:58:40.083Z,0
2017-07-09T20:59:00.360Z,0
2017-07-09T20:59:20.660Z,0
2017-07-09T20:59:40.994Z,0
2017-07-09T21:00:01.319Z,0
2017-07-09T21:00:21.600Z,0
2017-07-09T21:00:41.906Z,0
2017-07-09T21:01:02.192Z,0
2017-07-09T21:01:22.474Z,0
2017-07-09T21:01:42.740Z,0
2017-07-09T21:02:03.009Z,0
2017-07-09T21:02:23.319Z,0
2017-07-09T21:02:43.633Z,0
2017-07-09T21:03:03.930Z,0
2017-07-09T21:03:24.245Z,0
2017-07-09T21:03:44.531Z,0
2017-07-09T21:04:06.858Z,0
2017-07-09T21:04:27.225Z,0
2017-07-09T21:04:47.586Z,0
2017-07-09T21:05:08.065Z,0
2017-07-09T21:05:28.433Z,0
2017-07-09T21:05:48.906Z,0
2017-07-09T21:06:09.426Z,0
2017-07-09T21:06:29.849Z,0
2017-07-09T21:06:50.211Z,0
2017-07-09T21:07:10.841Z,0
2017-07-09T21:07:31.496Z,0
2017-07-09T21:07:51.920Z,0
2017-07-09T21:08:12.323Z,0
2017-07-09T21:08:32.634Z,0
2017-07-09T21:08:53.239Z,0
2017-07-09T21:09:13.706Z,0
2017-07-09T21:09:34.032Z,0
2017-07-09T21:09:54.594Z,0
2017-07-09T21:10:14.973Z,0
2017-07-09T21:10:35.520Z,0
2017-07-09T21:10:55.921Z,0
2017-07-09T21:11:16.371Z,0
2017-07-09T21:11:36.768Z,0
2017-07-09T21:11:57.079Z,0
2017-07-09T21:12:18.246Z,0
2017-07-09T21:12:38.672Z,0
2017-07-09T21:12:59.086Z,0
2017-07-09T21:13:19.410Z,0
2017-07-09T21:13:39.703Z,0
2017-07-09T21:13:59.988Z,0
2017-07-09T21:14:20.391Z,0
2017-07-09T21:14:40.707Z,0
2017-07-09T21:15:00.959Z,0
2017-07-09T21:15:21.289Z,0
2017-07-09T21:15:41.571Z,0
2017-07-09T21:16:01.838Z,0
2017-07-09T21:16:22.249Z,0
2017-07-09T21:16:42.564Z,0
2017-07-09T21:17:02.886Z,0
2017-07-09T21:17:23.147Z,0
2017-07-09T21:17:43.478Z,0
2017-07-09T21:18:03.756Z,0
2017-07-09T21:18:24.068Z,0
2017-07-09T21:18:44.456Z,0
2017-07-09T21:19:04.805Z,0
2017-07-09T21:19:25.080Z,0
2017-07-09T21:19:45.360Z,0
2017-07-09T21:20:05.885Z,0
2017-07-09T21:20:26.200Z,0
2017-07-09T21:20:46.697Z,0
2017-07-09T21:21:07.229Z,0
2017-07-09T21:21:28.225Z,0
2017-07-09T21:21:48.771Z,0
2017-07-09T21:22:09.134Z,0
2017-07-09T21:22:29.599Z,0
2017-07-09T21:22:50.267Z,0
2017-07-09T21:23:10.848Z,0
2017-07-09T21:23:31.266Z,0
2017-07-09T21:23:51.623Z,0
2017-07-09T21:24:11.942Z,0
2017-07-09T21:24:32.296Z,0
2017-07-09T21:24:52.643Z,0
2017-07-09T21:25:12.954Z,0
2017-07-09T21:25:33.269Z,0
2017-07-09T21:25:53.531Z,0
2017-07-09T21:26:13.817Z,0
2017-07-09T21:26:34.096Z,0
2017-07-09T21:26:54.481Z,0
2017-07-09T21:27:14.866Z,0
2017-07-09T21:27:35.437Z,0
2017-07-09T21:27:55.923Z,0
2017-07-09T21:28:17.212Z,0
2017-07-09T21:28:38.138Z,0
2017-07-09T21:28:58.430Z,0
2017-07-09T21:29:18.878Z,0
2017-07-09T21:29:39.226Z,0
2017-07-09T21:29:59.669Z,0
2017-07-09T21:30:20.037Z,0
2017-07-09T21:30:40.468Z,0
2017-07-09T21:31:00.754Z,0
2017-07-09T21:31:21.034Z,0
2017-07-09T21:31:41.479Z,0
2017-07-09T21:32:01.769Z,0
2017-07-09T21:32:22.275Z,0
2017-07-09T21:32:42.634Z,0
2017-07-09T21:33:03.026Z,0
2017-07-09T21:33:23.546Z,0
2017-07-09T21:33:43.950Z,0
2017-07-09T21:34:04.332Z,0
2017-07-09T21:34:24.998Z,0
2017-07-09T21:34:46.153Z,0
2017-07-09T21:35:06.645Z,0
2017-07-09T21:35:27.111Z,0
2017-07-09T21:35:47.541Z,0
2017-07-09T21:36:07.807Z,0
2017-07-09T21:36:28.226Z,0
2017-07-09T21:36:48.626Z,0
2017-07-09T21:37:08.973Z,0
2017-07-09T21:37:29.451Z,0
2017-07-09T21:37:49.984Z,0
2017-07-09T21:38:10.338Z,0
2017-07-09T21:38:30.624Z,0
2017-07-09T21:38:50.943Z,0
2017-07-09T21:39:11.259Z,0
2017-07-09T21:39:31.658Z,0
2017-07-09T21:39:52.010Z,0
2017-07-09T21:40:12.557Z,0
2017-07-09T21:40:33.047Z,0
2017-07-09T21:40:53.490Z,0
2017-07-09T21:41:13.828Z,0
2017-07-09T21:41:34.242Z,0
2017-07-09T21:41:54.742Z,0
2017-07-09T21:42:15.099Z,0
2017-07-09T21:42:35.425Z,0
2017-07-09T21:42:55.751Z,0
2017-07-09T21:43:16.043Z,0
2017-07-09T21:43:36.401Z,0
2017-07-09T21:43:56.771Z,0
2017-07-09T21:44:17.349Z,0
2017-07-09T21:44:37.717Z,0
2017-07-09T21:44:58.104Z,0
2017-07-09T21:45:18.526Z,0
2017-07-09T21:45:39.117Z,0
2017-07-09T21:45:59.765Z,0
2017-07-09T21:46:20.097Z,0
2017-07-09T21:46:40.397Z,0
2017-07-09T21:47:00.702Z,0
2017-07-09T21:47:21.004Z,0
2017-07-09T21:47:41.280Z,0
2017-07-09T21:48:01.613Z,0
2017-07-09T21:48:21.912Z,0
2017-07-09T21:48:42.240Z,0
2017-07-09T21:49:02.593Z,0
2017-07-09T21:49:22.961Z,0
2017-07-09T21:49:43.251Z,0
2017-07-09T21:50:03.529Z,0
2017-07-09T21:50:24.397Z,0
2017-07-09T21:50:44.735Z,0
2017-07-09T21:51:05.064Z,0
2017-07-09T21:51:25.424Z,0
2017-07-09T21:51:46.560Z,0
2017-07-09T21:52:07.026Z,0
2017-07-09T21:52:27.454Z,0
2017-07-09T21:52:48.696Z,0
2017-07-09T21:53:10.611Z,0
2017-07-09T21:53:30.902Z,0
2017-07-09T21:53:52.762Z,0
2017-07-09T21:54:13.642Z,0
2017-07-09T21:54:34.047Z,0
2017-07-09T21:54:55.024Z,0
2017-07-09T21:55:16.768Z,0
2017-07-09T21:55:37.600Z,0
2017-07-09T21:55:58.649Z,0
2017-07-09T21:56:19.690Z,0
2017-07-09T21:56:40.712Z,0
2017-07-09T21:57:00.989Z,0
2017-07-09T21:57:21.455Z,0
2017-07-09T21:57:41.770Z,0
2017-07-09T21:58:03.110Z,0
2017-07-09T21:58:24.700Z,0
2017-07-09T21:58:45.043Z,0
2017-07-09T21:59:07.643Z,0
2017-07-09T21:59:27.926Z,0
2017-07-09T21:59:48.402Z,0
2017-07-09T22:00:09.509Z,0
2017-07-09T22:00:30.655Z,0
2017-07-09T22:00:51.510Z,0
2017-07-09T22:01:12.776Z,0
2017-07-09T22:01:33.141Z,0
2017-07-09T22:01:54.220Z,0
2017-07-09T22:02:14.618Z,0
2017-07-09T22:02:36.162Z,0
2017-07-09T22:02:56.788Z,0
2017-07-09T22:03:18.192Z,0
2017-07-09T22:03:39.265Z,0
2017-07-09T22:04:00.190Z,0
2017-07-09T22:04:20.567Z,0
2017-07-09T22:04:42.272Z,0
2017-07-09T22:05:03.177Z,0
2017-07-09T22:05:24.660Z,0
2017-07-09T22:05:44.937Z,0
2017-07-09T22:06:06.228Z,0
2017-07-09T22:06:46.690Z,0
2017-07-09T22:07:07.014Z,0
2017-07-09T22:07:28.171Z,0
2017-07-09T22:07:49.195Z,0
2017-07-09T22:08:10.799Z,0
2017-07-09T22:08:31.664Z,0
2017-07-09T22:08:51.971Z,0
2017-07-09T22:09:12.855Z,0
2017-07-09T22:09:33.725Z,0
2017-07-09T22:09:54.699Z,0
2017-07-09T22:10:15.517Z,0
2017-07-09T22:10:37.618Z,0
2017-07-09T22:10:57.610Z,0
2017-07-09T22:11:17.911Z,0
2017-07-09T22:11:38.216Z,0
2017-07-09T22:11:58.547Z,0
2017-07-09T22:12:18.877Z,0
2017-07-09T22:12:39.194Z,0
2017-07-09T22:13:00.806Z,0
2017-07-09T22:13:21.083Z,0
2017-07-09T22:13:43.664Z,0
2017-07-09T22:14:04.716Z,0
2017-07-09T22:14:25.038Z,0
2017-07-09T22:14:46.166Z,0
2017-07-09T22:15:06.482Z,0
2017-07-09T22:15:26.838Z,0
2017-07-09T22:15:47.196Z,0
2017-07-09T22:16:07.565Z,0
2017-07-09T22:16:27.847Z,0
2017-07-09T22:16:49.167Z,0
2017-07-09T22:17:09.561Z,0
2017-07-09T22:17:29.886Z,0
2017-07-09T22:17:51.053Z,0
2017-07-09T22:18:11.344Z,0
2017-07-09T22:18:32.692Z,0
2017-07-09T22:18:52.996Z,0
2017-07-09T22:19:13.339Z,0
2017-07-09T22:19:33.618Z,0
2017-07-09T22:19:53.904Z,0
2017-07-09T22:20:14.191Z,0
2017-07-09T22:20:35.171Z,0
2017-07-09T22:20:56.166Z,0
2017-07-09T22:21:17.290Z,0
2017-07-09T22:21:37.617Z,0
2017-07-09T22:21:57.898Z,0
2017-07-09T22:22:18.275Z,0
2017-07-09T22:22:38.710Z,0
2017-07-09T22:22:59.035Z,0
2017-07-09T22:23:19.331Z,0
2017-07-09T22:23:39.736Z,0
2017-07-09T22:24:00.073Z,0
2017-07-09T22:24:20.430Z,0
2017-07-09T22:24:40.747Z,0
2017-07-09T22:25:01.060Z,0
2017-07-09T22:25:21.383Z,0
2017-07-09T22:25:41.665Z,0
2017-07-09T22:26:01.992Z,0
2017-07-09T22:26:22.351Z,0
2017-07-09T22:26:42.689Z,0
2017-07-09T22:27:03.676Z,0
2017-07-09T22:27:23.992Z,0
2017-07-09T22:27:44.286Z,0
2017-07-09T22:28:04.643Z,0
2017-07-09T22:28:24.660Z,0
2017-07-09T22:28:44.972Z,0
2017-07-09T22:29:05.259Z,0
2017-07-09T22:29:25.531Z,0
2017-07-09T22:29:45.803Z,0
2017-07-09T22:30:06.064Z,0
2017-07-09T22:30:26.328Z,0
2017-07-09T22:30:46.607Z,0
2017-07-09T22:31:06.896Z,0
2017-07-09T22:31:27.207Z,0
2017-07-09T22:31:47.515Z,0
2017-07-09T22:32:07.780Z,0
2017-07-09T22:32:28.073Z,0
2017-07-09T22:32:48.411Z,0
2017-07-09T22:33:08.683Z,0
2017-07-09T22:33:28.972Z,0
2017-07-09T22:33:49.291Z,0
2017-07-09T22:34:09.597Z,0
2017-07-09T22:34:29.920Z,0
2017-07-09T22:34:50.230Z,0
2017-07-09T22:35:10.595Z,0
2017-07-09T22:35:30.966Z,0
2017-07-09T22:35:51.286Z,0
2017-07-09T22:36:11.549Z,0
2017-07-09T22:36:31.829Z,0
2017-07-09T22:36:52.180Z,0
2017-07-09T22:37:12.542Z,0
2017-07-09T22:37:32.827Z,0
2017-07-09T22:37:53.258Z,0
2017-07-09T22:38:13.573Z,0
2017-07-09T22:38:33.885Z,0
2017-07-09T22:38:54.243Z,0
2017-07-09T22:39:14.566Z,0
2017-07-09T22:39:34.838Z,0
2017-07-09T22:39:55.113Z,0
2017-07-09T22:40:15.384Z,0
2017-07-09T22:40:35.660Z,0
2017-07-09T22:40:55.969Z,0
2017-07-09T22:41:16.329Z,0
2017-07-09T22:41:36.710Z,0
2017-07-09T22:41:57.062Z,0
2017-07-09T22:42:17.380Z,0
2017-07-09T22:42:37.658Z,0
2017-07-09T22:42:58.026Z,0
2017-07-09T22:43:18.333Z,0
2017-07-09T22:43:38.613Z,0
2017-07-09T22:43:58.918Z,0
2017-07-09T22:44:19.280Z,0
2017-07-09T22:44:39.627Z,0
2017-07-09T22:44:59.905Z,0
2017-07-09T22:45:20.268Z,0
2017-07-09T22:45:40.603Z,0
2017-07-09T22:46:00.924Z,0
2017-07-09T22:46:21.296Z,0
2017-07-09T22:46:41.657Z,0
2017-07-09T22:47:01.927Z,0
2017-07-09T22:47:22.205Z,0
2017-07-09T22:47:42.478Z,0
2017-07-09T22:48:02.766Z,0
2017-07-09T22:48:23.103Z,0
2017-07-09T22:48:43.436Z,0
2017-07-09T22:49:03.759Z,0
2017-07-09T22:49:24.064Z,0
2017-07-09T22:49:44.329Z,0
2017-07-09T22:50:04.602Z,0
2017-07-09T22:50:24.906Z,0
2017-07-09T22:50:45.180Z,0
2017-07-09T22:51:05.495Z,0
2017-07-09T22:51:25.745Z,0
2017-07-09T22:51:46.098Z,0
2017-07-09T22:52:06.399Z,0
2017-07-09T22:52:26.689Z,0
2017-07-09T22:52:47.006Z,0
2017-07-09T22:53:07.354Z,0
2017-07-09T22:53:27.673Z,0
2017-07-09T22:53:47.955Z,0
2017-07-09T22:54:08.342Z,0
2017-07-09T22:54:28.693Z,0
2017-07-09T22:54:48.970Z,0
2017-07-09T22:55:09.341Z,0
2017-07-09T22:55:29.612Z,0
2017-07-09T22:55:49.970Z,0
2017-07-09T22:56:10.337Z,0
2017-07-09T22:56:30.646Z,0
2017-07-09T22:56:50.921Z,0
2017-07-09T22:57:11.199Z,0
2017-07-09T22:57:31.466Z,0
2017-07-09T22:57:51.777Z,0
2017-07-09T22:58:12.093Z,0
2017-07-09T22:58:32.416Z,0
2017-07-09T22:58:52.753Z,0
2017-07-09T22:59:13.166Z,0
2017-07-09T22:59:33.569Z,0
2017-07-09T22:59:53.848Z,0
2017-07-09T23:00:14.204Z,0
2017-07-09T23:00:34.475Z,0
2017-07-09T23:00:54.745Z,0
2017-07-09T23:01:15.051Z,0
2017-07-09T23:01:35.329Z,0
2017-07-09T23:01:55.674Z,0
2017-07-09T23:02:16.018Z,0
2017-07-09T23:02:36.357Z,0
2017-07-09T23:02:56.653Z,0
2017-07-09T23:03:17.018Z,0
2017-07-09T23:03:37.304Z,0
2017-07-09T23:03:57.665Z,0
2017-07-09T23:04:17.975Z,0
2017-07-09T23:04:38.254Z,0
2017-07-09T23:04:58.260Z,0
2017-07-09T23:05:18.582Z,0
2017-07-09T23:05:38.947Z,0
2017-07-09T23:05:59.286Z,0
2017-07-09T23:06:19.565Z,0
2017-07-09T23:06:39.889Z,0
2017-07-09T23:07:00.204Z,0
2017-07-09T23:07:20.513Z,0
2017-07-09T23:07:40.815Z,0
2017-07-09T23:08:01.088Z,0
2017-07-09T23:08:21.387Z,0
2017-07-09T23:08:41.686Z,0
2017-07-09T23:09:02.003Z,0
2017-07-09T23:09:22.326Z,0
2017-07-09T23:09:42.610Z,0
2017-07-09T23:10:02.919Z,0
2017-07-09T23:10:23.322Z,0
2017-07-09T23:10:43.597Z,0
2017-07-09T23:11:03.961Z,0
2017-07-09T23:11:24.279Z,0
2017-07-09T23:11:44.683Z,0
2017-07-09T23:12:05.015Z,0
2017-07-09T23:12:25.329Z,0
2017-07-09T23:12:45.631Z,0
2017-07-09T23:13:05.940Z,0
2017-07-09T23:13:26.248Z,0
2017-07-09T23:13:46.564Z,0
2017-07-09T23:14:06.889Z,0
2017-07-09T23:14:27.176Z,0
2017-07-09T23:14:47.518Z,0
2017-07-09T23:15:07.869Z,0
2017-07-09T23:15:28.172Z,0
2017-07-09T23:15:48.481Z,0
2017-07-09T23:16:08.786Z,0
2017-07-09T23:16:29.048Z,0
2017-07-09T23:16:49.330Z,0
2017-07-09T23:17:09.620Z,0
2017-07-09T23:17:29.971Z,0
2017-07-09T23:17:50.282Z,0
2017-07-09T23:18:10.582Z,0
2017-07-09T23:18:30.866Z,0
2017-07-09T23:18:51.199Z,0
2017-07-09T23:19:11.483Z,0
2017-07-09T23:19:31.774Z,0
2017-07-09T23:19:52.092Z,0
2017-07-09T23:20:12.315Z,0
2017-07-09T23:20:32.628Z,0
2017-07-09T23:20:52.926Z,0
2017-07-09T23:21:13.221Z,0
2017-07-09T23:21:33.482Z,0
2017-07-09T23:21:53.989Z,0
2017-07-09T23:22:14.328Z,0
2017-07-09T23:22:34.661Z,0
2017-07-09T23:22:54.947Z,0
2017-07-09T23:23:15.272Z,0
2017-07-09T23:23:35.621Z,0
2017-07-09T23:23:55.962Z,0
2017-07-09T23:24:16.381Z,0
2017-07-09T23:24:37.601Z,0
2017-07-09T23:24:57.956Z,0
2017-07-09T23:25:18.327Z,0
2017-07-09T23:25:38.697Z,0
2017-07-09T23:25:58.968Z,0
2017-07-09T23:26:19.287Z,0
2017-07-09T23:26:39.604Z,0
2017-07-09T23:26:59.877Z,0
2017-07-09T23:27:20.281Z,0
2017-07-09T23:27:40.709Z,0
2017-07-09T23:28:01.142Z,0
2017-07-09T23:28:21.521Z,0
2017-07-09T23:28:41.797Z,0
2017-07-09T23:29:02.095Z,0
2017-07-09T23:29:22.381Z,0
2017-07-09T23:29:42.694Z,0
2017-07-09T23:30:03.065Z,0
2017-07-09T23:30:23.433Z,0
2017-07-09T23:30:43.709Z,0
2017-07-09T23:31:04.034Z,0
2017-07-09T23:31:24.291Z,0
2017-07-09T23:31:44.667Z,0
2017-07-09T23:32:04.947Z,0
2017-07-09T23:32:25.247Z,0
2017-07-09T23:32:45.644Z,0
2017-07-09T23:33:05.963Z,0
2017-07-09T23:33:26.446Z,0
2017-07-09T23:33:46.794Z,0
2017-07-09T23:34:07.097Z,0
2017-07-09T23:34:27.370Z,0
2017-07-09T23:34:47.739Z,0
2017-07-09T23:35:08.142Z,0
2017-07-09T23:35:28.462Z,0
2017-07-09T23:35:48.723Z,0
2017-07-09T23:36:09.007Z,0
2017-07-09T23:36:29.296Z,0
2017-07-09T23:36:49.624Z,0
2017-07-09T23:37:09.913Z,0
2017-07-09T23:37:30.222Z,0
2017-07-09T23:37:50.561Z,0
2017-07-09T23:38:10.820Z,0
2017-07-09T23:38:31.082Z,0
2017-07-09T23:38:51.390Z,0
2017-07-09T23:39:11.702Z,0
2017-07-09T23:39:31.991Z,0
2017-07-09T23:39:53.134Z,0
2017-07-09T23:40:13.447Z,0
2017-07-09T23:40:33.723Z,0
2017-07-09T23:40:54.064Z,0
2017-07-09T23:41:14.353Z,0
2017-07-09T23:41:34.739Z,0
2017-07-09T23:41:55.055Z,0
2017-07-09T23:42:15.358Z,0
2017-07-09T23:42:35.620Z,0
2017-07-09T23:42:55.890Z,0
2017-07-09T23:43:16.215Z,0
2017-07-09T23:43:36.505Z,0
2017-07-09T23:43:56.822Z,0
2017-07-09T23:44:17.195Z,0
2017-07-09T23:44:37.497Z,0
2017-07-09T23:44:57.763Z,0
2017-07-09T23:45:18.044Z,0
2017-07-09T23:45:38.437Z,0
2017-07-09T23:45:58.716Z,0
2017-07-09T23:46:19.052Z,0
2017-07-09T23:46:39.331Z,0
2017-07-09T23:46:59.635Z,0
2017-07-09T23:47:19.966Z,0
2017-07-09T23:47:40.228Z,0
2017-07-09T23:48:00.530Z,0
2017-07-09T23:48:20.828Z,0
2017-07-09T23:48:41.104Z,0
2017-07-09T23:49:01.439Z,0
2017-07-09T23:49:21.766Z,0
2017-07-09T23:49:42.043Z,0
2017-07-09T23:50:02.327Z,0
2017-07-09T23:50:22.644Z,0
2017-07-09T23:50:42.972Z,0
2017-07-09T23:51:03.271Z,0
2017-07-09T23:51:23.578Z,0
2017-07-09T23:51:43.943Z,0
2017-07-09T23:52:04.269Z,0
2017-07-09T23:52:24.593Z,0
2017-07-09T23:52:44.857Z,0
2017-07-09T23:53:05.128Z,0
2017-07-09T23:53:25.453Z,0
2017-07-09T23:53:45.717Z,0
2017-07-09T23:54:05.993Z,0
2017-07-09T23:54:26.289Z,0
2017-07-09T23:54:46.624Z,0
2017-07-09T23:55:06.954Z,0
2017-07-09T23:55:27.313Z,0
2017-07-09T23:55:47.602Z,0
2017-07-09T23:56:07.878Z,0
2017-07-09T23:56:28.261Z,0
2017-07-09T23:56:48.557Z,0
2017-07-09T23:57:08.825Z,0
2017-07-09T23:57:29.159Z,0
2017-07-09T23:57:49.479Z,0
2017-07-09T23:58:09.854Z,0
2017-07-09T23:58:30.178Z,0
2017-07-09T23:58:50.574Z,0
2017-07-09T23:59:10.857Z,0
2017-07-09T23:59:31.225Z,0
2017-07-09T23:59:51.531Z,0
